KPSP

Palm Springs International Airport

Palm Springs, California, USA
METAR KPSP 231053Z AUTO 29005KT 10SM CLR 21/10 A2979 RMK AO2 SLP086 T02060100
Observed Flight Rules
May-23 @ 10:53 UTC (16 minutes ago) Visual Flight Rules
Wind Visibility Clouds
290° at 5 knots 10 miles
  • Clear skies
Temperatures Readings
Current 21°C / 70°F
Dewpoint 10°C / 50°F
Humidity 50%
Altimeter 29.79" Hg
Pressure 1008.6 hPa
Elevation 135
METAR KPSP 231053Z AUTO 29005KT 10SM CLR 21/10 A2979 RMK AO2 SLP086 T02060100
Observed Flight Rules
May-23 @ 10:53 UTC
(16 minutes ago)
VFR
Wind Visibility
290° at 5 knots 10 miles
Clouds
  • Clear skies
Temperature Dewpoint
21°C / 70°F 10°C / 50°F
Humidity Altimeter Pressure
50% 29.79" Hg 1008.6 hPa